sensor_id;sensor_type;location;lat;lon;timestamp;pressure;altitude;pressure_sealevel;temperature;humidity
19259;BME280;9763;48.780;9.212;2022-08-21T00:02:59;98466.44;;;21.49;nan
19259;BME280;9763;48.780;9.212;2022-08-21T00:06:24;98464.28;;;21.45;nan
19259;BME280;9763;48.780;9.212;2022-08-21T00:09:48;98466.44;;;21.41;nan
19259;BME280;9763;48.780;9.212;2022-08-21T00:13:15;98466.75;;;21.38;nan
19259;BME280;9763;48.780;9.212;2022-08-21T00:16:40;98460.16;;;21.34;nan
19259;BME280;9763;48.780;9.212;2022-08-21T00:20:07;98451.84;;;21.29;nan
19259;BME280;9763;48.780;9.212;2022-08-21T00:23:34;98452.34;;;21.25;nan
19259;BME280;9763;48.780;9.212;2022-08-21T00:26:58;98456.16;;;21.22;nan
19259;BME280;9763;48.780;9.212;2022-08-21T00:30:26;98451.31;;;21.17;nan
19259;BME280;9763;48.780;9.212;2022-08-21T00:33:50;98448.97;;;21.14;nan
19259;BME280;9763;48.780;9.212;2022-08-21T00:37:20;98449.66;;;21.08;nan
19259;BME280;9763;48.780;9.212;2022-08-21T00:40:49;98457.94;;;21.05;nan
19259;BME280;9763;48.780;9.212;2022-08-21T00:44:15;98458.44;;;21.01;nan
19259;BME280;9763;48.780;9.212;2022-08-21T00:47:40;98456.28;;;20.96;nan
19259;BME280;9763;48.780;9.212;2022-08-21T00:51:09;98460.25;;;20.92;nan
19259;BME280;9763;48.780;9.212;2022-08-21T00:54:34;98453.63;;;20.88;nan
19259;BME280;9763;48.780;9.212;2022-08-21T00:58:02;98455.75;;;20.84;nan
19259;BME280;9763;48.780;9.212;2022-08-21T01:01:30;98453.28;;;20.83;nan
19259;BME280;9763;48.780;9.212;2022-08-21T01:04:55;98449.94;;;20.81;nan
19259;BME280;9763;48.780;9.212;2022-08-21T01:08:21;98450.09;;;20.79;nan
19259;BME280;9763;48.780;9.212;2022-08-21T01:11:46;98441.47;;;20.77;nan
19259;BME280;9763;48.780;9.212;2022-08-21T01:15:11;98443.50;;;20.75;nan
19259;BME280;9763;48.780;9.212;2022-08-21T01:18:37;98439.34;;;20.73;nan
19259;BME280;9763;48.780;9.212;2022-08-21T01:22:02;98446.63;;;20.71;nan
19259;BME280;9763;48.780;9.212;2022-08-21T01:25:26;98445.94;;;20.69;nan
19259;BME280;9763;48.780;9.212;2022-08-21T01:28:56;98453.38;;;20.65;nan
19259;BME280;9763;48.780;9.212;2022-08-21T01:32:21;98447.59;;;20.62;nan
19259;BME280;9763;48.780;9.212;2022-08-21T01:35:44;98443.59;;;20.58;nan
19259;BME280;9763;48.780;9.212;2022-08-21T01:39:09;98440.63;;;20.53;nan
19259;BME280;9763;48.780;9.212;2022-08-21T01:42:33;98438.97;;;20.52;nan
19259;BME280;9763;48.780;9.212;2022-08-21T01:45:57;98439.28;;;20.48;nan
19259;BME280;9763;48.780;9.212;2022-08-21T01:49:20;98432.63;;;20.44;nan
19259;BME280;9763;48.780;9.212;2022-08-21T01:52:45;98440.88;;;20.41;nan
19259;BME280;9763;48.780;9.212;2022-08-21T01:56:15;98439.41;;;20.39;nan
19259;BME280;9763;48.780;9.212;2022-08-21T01:59:39;98435.38;;;20.35;nan
19259;BME280;9763;48.780;9.212;2022-08-21T02:03:03;98427.75;;;20.32;nan
19259;BME280;9763;48.780;9.212;2022-08-21T02:06:27;98432.38;;;20.30;nan
19259;BME280;9763;48.780;9.212;2022-08-21T02:09:50;98427.56;;;20.25;nan
19259;BME280;9763;48.780;9.212;2022-08-21T02:13:16;98421.59;;;20.23;nan
19259;BME280;9763;48.780;9.212;2022-08-21T02:16:42;98423.88;;;20.18;nan
19259;BME280;9763;48.780;9.212;2022-08-21T02:20:08;98424.38;;;20.13;nan
19259;BME280;9763;48.780;9.212;2022-08-21T02:23:33;98418.56;;;20.10;nan
19259;BME280;9763;48.780;9.212;2022-08-21T02:26:56;98421.50;;;20.07;nan
19259;BME280;9763;48.780;9.212;2022-08-21T02:30:27;98420.84;;;20.05;nan
19259;BME280;9763;48.780;9.212;2022-08-21T02:33:51;98423.81;;;20.02;nan
19259;BME280;9763;48.780;9.212;2022-08-21T02:37:14;98426.78;;;19.99;nan
19259;BME280;9763;48.780;9.212;2022-08-21T02:40:41;98412.88;;;19.97;nan
19259;BME280;9763;48.780;9.212;2022-08-21T02:44:12;98401.41;;;19.88;nan
19259;BME280;9763;48.780;9.212;2022-08-21T02:47:37;98415.19;;;19.92;nan
19259;BME280;9763;48.780;9.212;2022-08-21T02:51:05;98419.94;;;19.88;nan
19259;BME280;9763;48.780;9.212;2022-08-21T02:54:29;98422.06;;;19.85;nan
19259;BME280;9763;48.780;9.212;2022-08-21T02:57:53;98425.88;;;19.82;nan
19259;BME280;9763;48.780;9.212;2022-08-21T03:01:17;98422.88;;;19.77;nan
19259;BME280;9763;48.780;9.212;2022-08-21T03:04:43;98425.00;;;19.73;nan
19259;BME280;9763;48.780;9.212;2022-08-21T03:08:11;98433.41;;;19.69;nan
19259;BME280;9763;48.780;9.212;2022-08-21T03:11:35;98425.78;;;19.66;nan
19259;BME280;9763;48.780;9.212;2022-08-21T03:14:59;98418.97;;;19.63;nan
19259;BME280;9763;48.780;9.212;2022-08-21T03:18:22;98422.63;;;19.62;nan
19259;BME280;9763;48.780;9.212;2022-08-21T03:21:47;98415.66;;;19.61;nan
19259;BME280;9763;48.780;9.212;2022-08-21T03:25:11;98416.78;;;19.59;nan
19259;BME280;9763;48.780;9.212;2022-08-21T03:28:34;98417.13;;;19.56;nan
19259;BME280;9763;48.780;9.212;2022-08-21T03:31:58;98416.75;;;19.51;nan
19259;BME280;9763;48.780;9.212;2022-08-21T03:35:21;98419.56;;;19.49;nan
19259;BME280;9763;48.780;9.212;2022-08-21T03:38:46;98419.81;;;19.46;nan
19259;BME280;9763;48.780;9.212;2022-08-21T03:42:10;98426.28;;;19.43;nan
19259;BME280;9763;48.780;9.212;2022-08-21T03:45:34;98432.72;;;19.41;nan
19259;BME280;9763;48.780;9.212;2022-08-21T03:48:57;98431.19;;;19.38;nan
19259;BME280;9763;48.780;9.212;2022-08-21T03:52:21;98434.00;;;19.37;nan
19259;BME280;9763;48.780;9.212;2022-08-21T03:55:49;98442.38;;;19.32;nan
19259;BME280;9763;48.780;9.212;2022-08-21T03:59:14;98442.56;;;19.31;nan
19259;BME280;9763;48.780;9.212;2022-08-21T04:02:39;98436.75;;;19.27;nan
19259;BME280;9763;48.780;9.212;2022-08-21T04:06:04;98444.84;;;19.26;nan
19259;BME280;9763;48.780;9.212;2022-08-21T04:09:28;98440.66;;;19.23;nan
19259;BME280;9763;48.780;9.212;2022-08-21T04:12:55;98443.47;;;19.22;nan
19259;BME280;9763;48.780;9.212;2022-08-21T04:16:18;98445.59;;;19.18;nan
19259;BME280;9763;48.780;9.212;2022-08-21T04:19:42;98447.56;;;19.16;nan
19259;BME280;9763;48.780;9.212;2022-08-21T04:23:06;98451.19;;;19.15;nan
19259;BME280;9763;48.780;9.212;2022-08-21T04:26:30;98459.13;;;19.15;nan
19259;BME280;9763;48.780;9.212;2022-08-21T04:29:55;98461.94;;;19.14;nan
19259;BME280;9763;48.780;9.212;2022-08-21T04:33:19;98464.72;;;19.12;nan
19259;BME280;9763;48.780;9.212;2022-08-21T04:36:43;98465.72;;;19.11;nan
19259;BME280;9763;48.780;9.212;2022-08-21T04:40:10;98467.00;;;19.07;nan
19259;BME280;9763;48.780;9.212;2022-08-21T04:43:34;98471.28;;;19.08;nan
19259;BME280;9763;48.780;9.212;2022-08-21T04:46:59;98477.13;;;19.12;nan
19259;BME280;9763;48.780;9.212;2022-08-21T04:50:28;98468.22;;;19.13;nan
19259;BME280;9763;48.780;9.212;2022-08-21T04:54:07;98473.88;;;19.18;nan
19259;BME280;9763;48.780;9.212;2022-08-21T04:57:31;98479.78;;;19.29;nan
19259;BME280;9763;48.780;9.212;2022-08-21T05:01:17;98483.53;;;19.62;nan
19259;BME280;9763;48.780;9.212;2022-08-21T05:04:48;98475.00;;;20.02;nan
19259;BME280;9763;48.780;9.212;2022-08-21T05:08:16;98472.75;;;20.49;nan
19259;BME280;9763;48.780;9.212;2022-08-21T05:11:42;98473.34;;;21.02;nan
19259;BME280;9763;48.780;9.212;2022-08-21T05:15:07;98480.72;;;21.56;nan
19259;BME280;9763;48.780;9.212;2022-08-21T05:18:34;98478.13;;;22.12;nan
19259;BME280;9763;48.780;9.212;2022-08-21T05:21:59;98479.91;;;22.67;nan
19259;BME280;9763;48.780;9.212;2022-08-21T05:25:23;98492.41;;;23.20;nan
19259;BME280;9763;48.780;9.212;2022-08-21T05:28:49;98490.19;;;23.69;nan
19259;BME280;9763;48.780;9.212;2022-08-21T05:32:13;98495.34;;;24.23;nan
19259;BME280;9763;48.780;9.212;2022-08-21T05:35:38;98485.34;;;24.75;nan
19259;BME280;9763;48.780;9.212;2022-08-21T05:39:03;98480.41;;;25.30;nan
19259;BME280;9763;48.780;9.212;2022-08-21T05:42:27;98488.09;;;25.89;nan
19259;BME280;9763;48.780;9.212;2022-08-21T05:45:51;98492.59;;;26.44;nan
19259;BME280;9763;48.780;9.212;2022-08-21T05:49:14;98493.59;;;26.90;nan
19259;BME280;9763;48.780;9.212;2022-08-21T05:52:38;98498.47;;;27.48;nan
19259;BME280;9763;48.780;9.212;2022-08-21T05:56:04;98483.59;;;28.11;nan
19259;BME280;9763;48.780;9.212;2022-08-21T05:59:29;98491.44;;;28.77;nan
19259;BME280;9763;48.780;9.212;2022-08-21T06:02:52;98493.38;;;29.46;nan
19259;BME280;9763;48.780;9.212;2022-08-21T06:06:16;98488.25;;;30.13;nan
19259;BME280;9763;48.780;9.212;2022-08-21T06:09:40;98492.31;;;30.76;nan
19259;BME280;9763;48.780;9.212;2022-08-21T06:13:05;98486.94;;;31.36;nan
19259;BME280;9763;48.780;9.212;2022-08-21T06:16:29;98482.09;;;31.92;nan
19259;BME280;9763;48.780;9.212;2022-08-21T06:19:54;98484.22;;;32.36;nan
19259;BME280;9763;48.780;9.212;2022-08-21T06:23:17;98476.81;;;32.83;nan
19259;BME280;9763;48.780;9.212;2022-08-21T06:26:41;98473.16;;;33.35;nan
19259;BME280;9763;48.780;9.212;2022-08-21T06:30:08;98484.59;;;33.87;nan
19259;BME280;9763;48.780;9.212;2022-08-21T06:33:31;98481.31;;;34.40;nan
19259;BME280;9763;48.780;9.212;2022-08-21T06:36:55;98471.97;;;34.96;nan
19259;BME280;9763;48.780;9.212;2022-08-21T06:40:18;98473.50;;;35.41;nan
19259;BME280;9763;48.780;9.212;2022-08-21T06:43:42;98475.66;;;35.71;nan
19259;BME280;9763;48.780;9.212;2022-08-21T06:47:07;98466.72;;;36.13;nan
19259;BME280;9763;48.780;9.212;2022-08-21T06:50:31;98472.94;;;36.55;nan
19259;BME280;9763;48.780;9.212;2022-08-21T06:53:55;98462.16;;;36.86;nan
19259;BME280;9763;48.780;9.212;2022-08-21T06:57:20;98460.63;;;37.20;nan
19259;BME280;9763;48.780;9.212;2022-08-21T07:00:49;98461.47;;;37.61;nan
19259;BME280;9763;48.780;9.212;2022-08-21T07:04:14;98460.88;;;38.05;nan
19259;BME280;9763;48.780;9.212;2022-08-21T07:07:38;98461.31;;;38.47;nan
19259;BME280;9763;48.780;9.212;2022-08-21T07:11:07;98454.53;;;38.94;nan
19259;BME280;9763;48.780;9.212;2022-08-21T07:14:32;98449.13;;;39.33;nan
19259;BME280;9763;48.780;9.212;2022-08-21T07:17:55;98458.66;;;39.70;nan
19259;BME280;9763;48.780;9.212;2022-08-21T07:21:21;98454.25;;;40.03;nan
19259;BME280;9763;48.780;9.212;2022-08-21T07:24:47;98449.78;;;40.36;nan
19259;BME280;9763;48.780;9.212;2022-08-21T07:28:10;98448.31;;;40.67;nan
19259;BME280;9763;48.780;9.212;2022-08-21T07:31:34;98437.03;;;40.92;nan
19259;BME280;9763;48.780;9.212;2022-08-21T07:34:57;98447.63;;;41.18;nan
19259;BME280;9763;48.780;9.212;2022-08-21T07:38:23;98441.09;;;41.46;nan
19259;BME280;9763;48.780;9.212;2022-08-21T07:41:47;98438.03;;;41.66;nan
19259;BME280;9763;48.780;9.212;2022-08-21T07:45:12;98442.13;;;41.83;nan
19259;BME280;9763;48.780;9.212;2022-08-21T07:48:36;98434.47;;;42.12;nan
19259;BME280;9763;48.780;9.212;2022-08-21T07:52:00;98438.25;;;42.44;nan
19259;BME280;9763;48.780;9.212;2022-08-21T07:55:25;98434.94;;;42.69;nan
19259;BME280;9763;48.780;9.212;2022-08-21T07:58:49;98430.84;;;42.94;nan
19259;BME280;9763;48.780;9.212;2022-08-21T08:02:23;98435.50;;;43.29;nan
19259;BME280;9763;48.780;9.212;2022-08-21T08:05:46;98428.00;;;43.43;nan
19259;BME280;9763;48.780;9.212;2022-08-21T08:09:10;98424.50;;;43.52;nan
19259;BME280;9763;48.780;9.212;2022-08-21T08:12:35;98427.22;;;43.74;nan
19259;BME280;9763;48.780;9.212;2022-08-21T08:15:58;98418.00;;;44.09;nan
19259;BME280;9763;48.780;9.212;2022-08-21T08:19:22;98411.78;;;44.35;nan
19259;BME280;9763;48.780;9.212;2022-08-21T08:22:46;98412.50;;;44.66;nan
19259;BME280;9763;48.780;9.212;2022-08-21T08:26:11;98402.81;;;44.95;nan
19259;BME280;9763;48.780;9.212;2022-08-21T08:29:36;98408.19;;;45.26;nan
19259;BME280;9763;48.780;9.212;2022-08-21T08:33:00;98401.81;;;45.34;nan
19259;BME280;9763;48.780;9.212;2022-08-21T08:36:34;98394.34;;;45.34;nan
19259;BME280;9763;48.780;9.212;2022-08-21T08:40:02;98389.50;;;45.40;nan
19259;BME280;9763;48.780;9.212;2022-08-21T08:43:28;98388.50;;;45.44;nan
19259;BME280;9763;48.780;9.212;2022-08-21T08:46:53;98391.75;;;45.38;nan
19259;BME280;9763;48.780;9.212;2022-08-21T08:50:22;98380.72;;;45.38;nan
19259;BME280;9763;48.780;9.212;2022-08-21T08:53:52;98377.44;;;45.44;nan
19259;BME280;9763;48.780;9.212;2022-08-21T08:57:19;98370.34;;;45.52;nan
19259;BME280;9763;48.780;9.212;2022-08-21T09:00:47;98372.03;;;45.74;nan
19259;BME280;9763;48.780;9.212;2022-08-21T09:04:21;98372.66;;;45.79;nan
19259;BME280;9763;48.780;9.212;2022-08-21T09:08:01;98370.38;;;45.81;nan
19259;BME280;9763;48.780;9.212;2022-08-21T09:11:47;98365.06;;;46.06;nan
19259;BME280;9763;48.780;9.212;2022-08-21T09:15:23;98365.44;;;46.34;nan
19259;BME280;9763;48.780;9.212;2022-08-21T09:19:03;98360.84;;;46.38;nan
19259;BME280;9763;48.780;9.212;2022-08-21T09:22:44;98365.88;;;46.65;nan
19259;BME280;9763;48.780;9.212;2022-08-21T09:26:13;98357.97;;;46.96;nan
19259;BME280;9763;48.780;9.212;2022-08-21T09:29:41;98355.44;;;47.37;nan
19259;BME280;9763;48.780;9.212;2022-08-21T09:33:05;98352.91;;;47.77;nan
19259;BME280;9763;48.780;9.212;2022-08-21T09:36:37;98356.13;;;47.91;nan
19259;BME280;9763;48.780;9.212;2022-08-21T09:40:27;98343.31;;;47.98;nan
19259;BME280;9763;48.780;9.212;2022-08-21T09:43:53;98334.16;;;48.34;nan
19259;BME280;9763;48.780;9.212;2022-08-21T09:47:19;98339.22;;;48.57;nan
19259;BME280;9763;48.780;9.212;2022-08-21T09:50:50;98334.50;;;48.45;nan
19259;BME280;9763;48.780;9.212;2022-08-21T09:54:18;98331.84;;;48.36;nan
19259;BME280;9763;48.780;9.212;2022-08-21T09:57:45;98328.03;;;48.41;nan
19259;BME280;9763;48.780;9.212;2022-08-21T10:01:15;98332.47;;;48.18;nan
19259;BME280;9763;48.780;9.212;2022-08-21T10:04:40;98336.06;;;48.06;nan
19259;BME280;9763;48.780;9.212;2022-08-21T10:08:18;98321.28;;;48.14;nan
19259;BME280;9763;48.780;9.212;2022-08-21T10:11:52;98319.28;;;48.27;nan
19259;BME280;9763;48.780;9.212;2022-08-21T10:15:36;98309.53;;;48.57;nan
19259;BME280;9763;48.780;9.212;2022-08-21T10:19:16;98307.81;;;48.53;nan
19259;BME280;9763;48.780;9.212;2022-08-21T10:23:02;98305.63;;;48.46;nan
19259;BME280;9763;48.780;9.212;2022-08-21T10:26:46;98303.97;;;48.57;nan
19259;BME280;9763;48.780;9.212;2022-08-21T10:30:15;98303.75;;;48.62;nan
19259;BME280;9763;48.780;9.212;2022-08-21T10:33:52;98302.16;;;48.89;nan
19259;BME280;9763;48.780;9.212;2022-08-21T10:37:31;98293.69;;;49.14;nan
19259;BME280;9763;48.780;9.212;2022-08-21T10:41:13;98293.09;;;49.20;nan
19259;BME280;9763;48.780;9.212;2022-08-21T10:44:49;98289.19;;;48.65;nan
19259;BME280;9763;48.780;9.212;2022-08-21T10:48:25;98290.72;;;48.51;nan
19259;BME280;9763;48.780;9.212;2022-08-21T10:56:05;98278.59;;;48.83;nan
19259;BME280;9763;48.780;9.212;2022-08-21T10:59:42;98284.59;;;48.85;nan
19259;BME280;9763;48.780;9.212;2022-08-21T11:03:13;98274.41;;;49.05;nan
19259;BME280;9763;48.780;9.212;2022-08-21T11:06:44;98275.44;;;49.13;nan
19259;BME280;9763;48.780;9.212;2022-08-21T11:10:19;98270.66;;;48.97;nan
19259;BME280;9763;48.780;9.212;2022-08-21T11:13:51;98263.72;;;48.48;nan
19259;BME280;9763;48.780;9.212;2022-08-21T11:17:24;98264.81;;;48.19;nan
19259;BME280;9763;48.780;9.212;2022-08-21T11:21:01;98261.38;;;48.10;nan
19259;BME280;9763;48.780;9.212;2022-08-21T11:24:33;98259.03;;;48.24;nan
19259;BME280;9763;48.780;9.212;2022-08-21T11:28:10;98248.59;;;48.73;nan
19259;BME280;9763;48.780;9.212;2022-08-21T11:32:01;98260.38;;;48.98;nan
19259;BME280;9763;48.780;9.212;2022-08-21T11:35:35;98266.81;;;49.02;nan
19259;BME280;9763;48.780;9.212;2022-08-21T11:39:12;98248.53;;;48.29;nan
19259;BME280;9763;48.780;9.212;2022-08-21T11:42:50;98254.59;;;47.34;nan
19259;BME280;9763;48.780;9.212;2022-08-21T11:46:29;98253.91;;;45.12;nan
19259;BME280;9763;48.780;9.212;2022-08-21T11:50:11;98241.63;;;43.71;nan
19259;BME280;9763;48.780;9.212;2022-08-21T11:54:05;98238.75;;;43.45;nan
19259;BME280;9763;48.780;9.212;2022-08-21T11:57:35;98246.94;;;42.97;nan
19259;BME280;9763;48.780;9.212;2022-08-21T12:01:06;98240.59;;;43.19;nan
19259;BME280;9763;48.780;9.212;2022-08-21T12:04:43;98243.91;;;43.07;nan
19259;BME280;9763;48.780;9.212;2022-08-21T12:08:15;98233.56;;;41.88;nan
19259;BME280;9763;48.780;9.212;2022-08-21T12:12:01;98239.44;;;41.95;nan
19259;BME280;9763;48.780;9.212;2022-08-21T12:15:27;98235.41;;;43.18;nan
19259;BME280;9763;48.780;9.212;2022-08-21T12:19:04;98229.66;;;43.93;nan
19259;BME280;9763;48.780;9.212;2022-08-21T12:22:39;98230.53;;;42.84;nan
19259;BME280;9763;48.780;9.212;2022-08-21T12:26:27;98229.63;;;41.39;nan
19259;BME280;9763;48.780;9.212;2022-08-21T12:29:54;98222.44;;;41.29;nan
19259;BME280;9763;48.780;9.212;2022-08-21T12:33:26;98218.78;;;42.47;nan
19259;BME280;9763;48.780;9.212;2022-08-21T12:36:58;98218.78;;;42.69;nan
19259;BME280;9763;48.780;9.212;2022-08-21T12:40:30;98211.94;;;41.45;nan
19259;BME280;9763;48.780;9.212;2022-08-21T12:43:59;98206.16;;;41.06;nan
19259;BME280;9763;48.780;9.212;2022-08-21T12:47:32;98199.06;;;41.73;nan
19259;BME280;9763;48.780;9.212;2022-08-21T12:51:07;98199.34;;;42.66;nan
19259;BME280;9763;48.780;9.212;2022-08-21T12:54:40;98192.81;;;43.06;nan
19259;BME280;9763;48.780;9.212;2022-08-21T12:58:06;98193.56;;;43.29;nan
19259;BME280;9763;48.780;9.212;2022-08-21T13:01:33;98181.66;;;43.51;nan
19259;BME280;9763;48.780;9.212;2022-08-21T13:05:06;98193.66;;;43.55;nan
19259;BME280;9763;48.780;9.212;2022-08-21T13:08:35;98187.53;;;43.67;nan
19259;BME280;9763;48.780;9.212;2022-08-21T13:12:07;98187.06;;;43.73;nan
19259;BME280;9763;48.780;9.212;2022-08-21T13:15:36;98192.63;;;43.34;nan
19259;BME280;9763;48.780;9.212;2022-08-21T13:19:06;98188.81;;;42.82;nan
19259;BME280;9763;48.780;9.212;2022-08-21T13:22:30;98192.41;;;42.37;nan
19259;BME280;9763;48.780;9.212;2022-08-21T13:25:57;98191.84;;;41.50;nan
19259;BME280;9763;48.780;9.212;2022-08-21T13:29:27;98195.50;;;40.20;nan
19259;BME280;9763;48.780;9.212;2022-08-21T13:33:01;98196.47;;;38.97;nan
19259;BME280;9763;48.780;9.212;2022-08-21T13:36:29;98198.63;;;37.93;nan
19259;BME280;9763;48.780;9.212;2022-08-21T13:39:55;98183.94;;;37.09;nan
19259;BME280;9763;48.780;9.212;2022-08-21T13:43:24;98184.22;;;37.23;nan
19259;BME280;9763;48.780;9.212;2022-08-21T13:46:51;98178.91;;;37.57;nan
19259;BME280;9763;48.780;9.212;2022-08-21T13:50:18;98177.19;;;37.06;nan
19259;BME280;9763;48.780;9.212;2022-08-21T13:53:47;98177.47;;;36.19;nan
19259;BME280;9763;48.780;9.212;2022-08-21T13:57:18;98179.38;;;35.30;nan
19259;BME280;9763;48.780;9.212;2022-08-21T14:00:47;98176.66;;;35.25;nan
19259;BME280;9763;48.780;9.212;2022-08-21T14:04:20;98177.97;;;35.85;nan
19259;BME280;9763;48.780;9.212;2022-08-21T14:07:49;98180.53;;;35.45;nan
19259;BME280;9763;48.780;9.212;2022-08-21T14:11:14;98179.16;;;34.90;nan
19259;BME280;9763;48.780;9.212;2022-08-21T14:14:39;98175.50;;;34.42;nan
19259;BME280;9763;48.780;9.212;2022-08-21T14:18:13;98180.53;;;34.02;nan
19259;BME280;9763;48.780;9.212;2022-08-21T14:21:40;98181.53;;;33.69;nan
19259;BME280;9763;48.780;9.212;2022-08-21T14:25:11;98174.69;;;33.39;nan
19259;BME280;9763;48.780;9.212;2022-08-21T14:28:40;98172.75;;;33.18;nan
19259;BME280;9763;48.780;9.212;2022-08-21T14:32:13;98175.50;;;33.01;nan
19259;BME280;9763;48.780;9.212;2022-08-21T14:35:46;98172.03;;;32.84;nan
19259;BME280;9763;48.780;9.212;2022-08-21T14:39:10;98157.91;;;32.65;nan
19259;BME280;9763;48.780;9.212;2022-08-21T14:42:35;98157.69;;;32.50;nan
19259;BME280;9763;48.780;9.212;2022-08-21T14:46:01;98162.94;;;32.40;nan
19259;BME280;9763;48.780;9.212;2022-08-21T14:49:27;98160.41;;;32.33;nan
19259;BME280;9763;48.780;9.212;2022-08-21T14:52:51;98159.47;;;32.28;nan
19259;BME280;9763;48.780;9.212;2022-08-21T14:56:15;98160.25;;;32.23;nan
19259;BME280;9763;48.780;9.212;2022-08-21T14:59:41;98149.53;;;32.16;nan
19259;BME280;9763;48.780;9.212;2022-08-21T15:03:05;98156.19;;;32.09;nan
19259;BME280;9763;48.780;9.212;2022-08-21T15:06:28;98142.81;;;32.02;nan
19259;BME280;9763;48.780;9.212;2022-08-21T15:09:52;98144.63;;;31.97;nan
19259;BME280;9763;48.780;9.212;2022-08-21T15:13:15;98141.44;;;32.00;nan
19259;BME280;9763;48.780;9.212;2022-08-21T15:16:40;98142.22;;;32.00;nan
19259;BME280;9763;48.780;9.212;2022-08-21T15:20:05;98132.53;;;31.99;nan
19259;BME280;9763;48.780;9.212;2022-08-21T15:23:29;98131.94;;;31.97;nan
19259;BME280;9763;48.780;9.212;2022-08-21T15:26:54;98130.19;;;31.91;nan
19259;BME280;9763;48.780;9.212;2022-08-21T15:30:19;98122.63;;;31.76;nan
19259;BME280;9763;48.780;9.212;2022-08-21T15:33:44;98125.75;;;31.68;nan
19259;BME280;9763;48.780;9.212;2022-08-21T15:37:07;98128.34;;;31.63;nan
19259;BME280;9763;48.780;9.212;2022-08-21T15:40:31;98118.25;;;31.59;nan
19259;BME280;9763;48.780;9.212;2022-08-21T15:43:55;98115.56;;;31.59;nan
19259;BME280;9763;48.780;9.212;2022-08-21T15:47:23;98112.97;;;31.52;nan
19259;BME280;9763;48.780;9.212;2022-08-21T15:50:50;98114.78;;;31.46;nan
19259;BME280;9763;48.780;9.212;2022-08-21T15:54:13;98115.25;;;31.43;nan
19259;BME280;9763;48.780;9.212;2022-08-21T15:57:43;98104.69;;;31.42;nan
19259;BME280;9763;48.780;9.212;2022-08-21T16:01:20;98102.22;;;31.40;nan
19259;BME280;9763;48.780;9.212;2022-08-21T16:04:45;98105.19;;;31.39;nan
19259;BME280;9763;48.780;9.212;2022-08-21T16:08:10;98102.97;;;31.36;nan
19259;BME280;9763;48.780;9.212;2022-08-21T16:11:34;98115.88;;;31.34;nan
19259;BME280;9763;48.780;9.212;2022-08-21T16:14:59;98106.38;;;31.31;nan
19259;BME280;9763;48.780;9.212;2022-08-21T16:18:24;98103.09;;;31.29;nan
19259;BME280;9763;48.780;9.212;2022-08-21T16:21:47;98102.78;;;31.26;nan
19259;BME280;9763;48.780;9.212;2022-08-21T16:25:14;98098.91;;;31.22;nan
19259;BME280;9763;48.780;9.212;2022-08-21T16:28:41;98092.59;;;31.16;nan
19259;BME280;9763;48.780;9.212;2022-08-21T16:32:08;98094.13;;;31.12;nan
19259;BME280;9763;48.780;9.212;2022-08-21T16:35:32;98091.06;;;31.08;nan
19259;BME280;9763;48.780;9.212;2022-08-21T16:38:57;98090.97;;;31.03;nan
19259;BME280;9763;48.780;9.212;2022-08-21T16:42:25;98092.50;;;30.99;nan
19259;BME280;9763;48.780;9.212;2022-08-21T16:45:49;98087.81;;;30.95;nan
19259;BME280;9763;48.780;9.212;2022-08-21T16:49:13;98086.66;;;30.91;nan
19259;BME280;9763;48.780;9.212;2022-08-21T16:52:36;98083.03;;;30.85;nan
19259;BME280;9763;48.780;9.212;2022-08-21T16:56:00;98082.09;;;30.79;nan
19259;BME280;9763;48.780;9.212;2022-08-21T16:59:25;98081.19;;;30.74;nan
19259;BME280;9763;48.780;9.212;2022-08-21T17:02:53;98080.50;;;30.67;nan
19259;BME280;9763;48.780;9.212;2022-08-21T17:06:19;98080.59;;;30.60;nan
19259;BME280;9763;48.780;9.212;2022-08-21T17:09:43;98077.22;;;30.53;nan
19259;BME280;9763;48.780;9.212;2022-08-21T17:13:06;98077.88;;;30.49;nan
19259;BME280;9763;48.780;9.212;2022-08-21T17:16:32;98079.66;;;30.43;nan
19259;BME280;9763;48.780;9.212;2022-08-21T17:19:56;98080.59;;;30.37;nan
19259;BME280;9763;48.780;9.212;2022-08-21T17:23:20;98084.22;;;30.31;nan
19259;BME280;9763;48.780;9.212;2022-08-21T17:26:44;98080.81;;;30.24;nan
19259;BME280;9763;48.780;9.212;2022-08-21T17:30:11;98082.22;;;30.15;nan
19259;BME280;9763;48.780;9.212;2022-08-21T17:33:41;98081.16;;;30.04;nan
19259;BME280;9763;48.780;9.212;2022-08-21T17:37:11;98081.72;;;29.94;nan
19259;BME280;9763;48.780;9.212;2022-08-21T17:40:35;98083.06;;;29.85;nan
19259;BME280;9763;48.780;9.212;2022-08-21T17:44:04;98084.22;;;29.78;nan
19259;BME280;9763;48.780;9.212;2022-08-21T17:47:30;98083.75;;;29.69;nan
19259;BME280;9763;48.780;9.212;2022-08-21T17:50:55;98091.09;;;29.62;nan
19259;BME280;9763;48.780;9.212;2022-08-21T17:54:18;98088.13;;;29.52;nan
19259;BME280;9763;48.780;9.212;2022-08-21T17:57:44;98087.88;;;29.42;nan
19259;BME280;9763;48.780;9.212;2022-08-21T18:01:10;98093.75;;;29.32;nan
19259;BME280;9763;48.780;9.212;2022-08-21T18:04:34;98103.41;;;29.21;nan
19259;BME280;9763;48.780;9.212;2022-08-21T18:07:59;98092.59;;;29.10;nan
19259;BME280;9763;48.780;9.212;2022-08-21T18:11:27;98099.31;;;29.00;nan
19259;BME280;9763;48.780;9.212;2022-08-21T18:14:51;98097.59;;;28.88;nan
19259;BME280;9763;48.780;9.212;2022-08-21T18:18:15;98097.28;;;28.78;nan
19259;BME280;9763;48.780;9.212;2022-08-21T18:21:38;98108.16;;;28.64;nan
19259;BME280;9763;48.780;9.212;2022-08-21T18:25:05;98097.31;;;28.53;nan
19259;BME280;9763;48.780;9.212;2022-08-21T18:28:28;98103.44;;;28.42;nan
19259;BME280;9763;48.780;9.212;2022-08-21T18:31:52;98108.91;;;28.28;nan
19259;BME280;9763;48.780;9.212;2022-08-21T18:35:16;98112.50;;;28.16;nan
19259;BME280;9763;48.780;9.212;2022-08-21T18:38:40;98109.09;;;28.02;nan
19259;BME280;9763;48.780;9.212;2022-08-21T18:42:10;98111.50;;;27.85;nan
19259;BME280;9763;48.780;9.212;2022-08-21T18:45:35;98114.50;;;27.71;nan
19259;BME280;9763;48.780;9.212;2022-08-21T18:48:59;98113.94;;;27.55;nan
19259;BME280;9763;48.780;9.212;2022-08-21T18:52:23;98126.75;;;27.47;nan
19259;BME280;9763;48.780;9.212;2022-08-21T18:55:50;98120.22;;;27.36;nan
19259;BME280;9763;48.780;9.212;2022-08-21T18:59:15;98120.69;;;27.27;nan
19259;BME280;9763;48.780;9.212;2022-08-21T19:02:40;98128.75;;;27.20;nan
19259;BME280;9763;48.780;9.212;2022-08-21T19:06:06;98126.91;;;27.14;nan
19259;BME280;9763;48.780;9.212;2022-08-21T19:09:49;98131.69;;;27.05;nan